sensor_id;sensor_type;location;lat;lon;timestamp;temperature;humidity
33741;DHT22;20065;48.380;10.892;2023-12-07T00:00:49;3.00;99.90
33741;DHT22;20065;48.380;10.892;2023-12-07T00:03:35;3.10;99.90
33741;DHT22;20065;48.380;10.892;2023-12-07T00:06:23;3.00;99.90
33741;DHT22;20065;48.380;10.892;2023-12-07T00:09:09;3.00;99.90
33741;DHT22;20065;48.380;10.892;2023-12-07T00:11:57;3.00;99.90
33741;DHT22;20065;48.380;10.892;2023-12-07T00:14:44;3.00;99.90
33741;DHT22;20065;48.380;10.892;2023-12-07T00:17:31;3.00;99.90
33741;DHT22;20065;48.380;10.892;2023-12-07T00:20:17;3.00;99.90
33741;DHT22;20065;48.380;10.892;2023-12-07T00:23:03;3.00;99.90
33741;DHT22;20065;48.380;10.892;2023-12-07T00:25:50;3.00;99.90
33741;DHT22;20065;48.380;10.892;2023-12-07T00:28:36;2.90;99.90
33741;DHT22;20065;48.380;10.892;2023-12-07T00:31:23;2.80;99.90
33741;DHT22;20065;48.380;10.892;2023-12-07T00:34:09;2.90;99.90
33741;DHT22;20065;48.380;10.892;2023-12-07T00:36:56;2.80;99.90
33741;DHT22;20065;48.380;10.892;2023-12-07T00:39:42;2.90;99.90
33741;DHT22;20065;48.380;10.892;2023-12-07T00:42:29;3.10;99.90
33741;DHT22;20065;48.380;10.892;2023-12-07T00:45:17;3.10;99.90
33741;DHT22;20065;48.380;10.892;2023-12-07T00:48:04;3.20;99.90
33741;DHT22;20065;48.380;10.892;2023-12-07T00:50:50;3.20;99.90
33741;DHT22;20065;48.380;10.892;2023-12-07T00:53:37;3.30;99.90
33741;DHT22;20065;48.380;10.892;2023-12-07T00:56:24;3.30;99.90
33741;DHT22;20065;48.380;10.892;2023-12-07T00:59:11;3.20;99.90
33741;DHT22;20065;48.380;10.892;2023-12-07T01:02:00;3.20;99.90
33741;DHT22;20065;48.380;10.892;2023-12-07T01:04:47;3.10;99.90
33741;DHT22;20065;48.380;10.892;2023-12-07T01:07:33;3.00;99.90
33741;DHT22;20065;48.380;10.892;2023-12-07T01:10:20;3.00;99.90
33741;DHT22;20065;48.380;10.892;2023-12-07T01:13:07;3.00;99.90
33741;DHT22;20065;48.380;10.892;2023-12-07T01:15:53;3.00;99.90
33741;DHT22;20065;48.380;10.892;2023-12-07T01:18:40;3.10;99.90
33741;DHT22;20065;48.380;10.892;2023-12-07T01:21:26;3.00;99.90
33741;DHT22;20065;48.380;10.892;2023-12-07T01:24:13;3.10;99.90
33741;DHT22;20065;48.380;10.892;2023-12-07T01:26:59;3.00;99.90
33741;DHT22;20065;48.380;10.892;2023-12-07T01:29:45;3.10;99.90
33741;DHT22;20065;48.380;10.892;2023-12-07T01:32:35;3.00;99.90
33741;DHT22;20065;48.380;10.892;2023-12-07T01:35:21;3.10;99.90
33741;DHT22;20065;48.380;10.892;2023-12-07T01:38:07;3.10;99.90
33741;DHT22;20065;48.380;10.892;2023-12-07T01:40:54;3.20;99.90
33741;DHT22;20065;48.380;10.892;2023-12-07T01:43:47;3.10;99.90
33741;DHT22;20065;48.380;10.892;2023-12-07T01:46:34;3.10;99.90
33741;DHT22;20065;48.380;10.892;2023-12-07T01:49:22;3.10;99.90
33741;DHT22;20065;48.380;10.892;2023-12-07T01:52:09;3.20;99.90
33741;DHT22;20065;48.380;10.892;2023-12-07T01:54:57;3.20;99.90
33741;DHT22;20065;48.380;10.892;2023-12-07T01:57:44;3.20;99.90
33741;DHT22;20065;48.380;10.892;2023-12-07T02:00:33;3.20;99.90
33741;DHT22;20065;48.380;10.892;2023-12-07T02:03:20;3.20;99.90
33741;DHT22;20065;48.380;10.892;2023-12-07T02:06:07;3.10;99.90
33741;DHT22;20065;48.380;10.892;2023-12-07T02:08:54;3.10;99.90
33741;DHT22;20065;48.380;10.892;2023-12-07T02:11:41;3.10;99.90
33741;DHT22;20065;48.380;10.892;2023-12-07T02:14:28;3.00;99.90
33741;DHT22;20065;48.380;10.892;2023-12-07T02:23:07;3.00;99.90
33741;DHT22;20065;48.380;10.892;2023-12-07T02:25:55;3.00;99.90
33741;DHT22;20065;48.380;10.892;2023-12-07T02:28:48;3.00;99.90
33741;DHT22;20065;48.380;10.892;2023-12-07T02:31:35;3.00;99.90
33741;DHT22;20065;48.380;10.892;2023-12-07T02:34:22;3.00;99.90
33741;DHT22;20065;48.380;10.892;2023-12-07T02:37:09;3.10;99.90
33741;DHT22;20065;48.380;10.892;2023-12-07T02:39:57;3.10;99.90
33741;DHT22;20065;48.380;10.892;2023-12-07T02:42:44;3.20;99.90
33741;DHT22;20065;48.380;10.892;2023-12-07T02:45:31;3.10;99.90
33741;DHT22;20065;48.380;10.892;2023-12-07T02:48:21;3.10;99.90
33741;DHT22;20065;48.380;10.892;2023-12-07T02:51:07;3.10;99.90
33741;DHT22;20065;48.380;10.892;2023-12-07T02:53:53;3.10;99.90
33741;DHT22;20065;48.380;10.892;2023-12-07T02:56:40;3.10;99.90
33741;DHT22;20065;48.380;10.892;2023-12-07T02:59:27;3.10;99.90
33741;DHT22;20065;48.380;10.892;2023-12-07T03:02:13;3.10;99.90
33741;DHT22;20065;48.380;10.892;2023-12-07T03:05:00;3.10;99.90
33741;DHT22;20065;48.380;10.892;2023-12-07T03:07:46;3.10;99.90
33741;DHT22;20065;48.380;10.892;2023-12-07T03:10:32;3.00;99.90
33741;DHT22;20065;48.380;10.892;2023-12-07T03:13:18;3.00;99.90
33741;DHT22;20065;48.380;10.892;2023-12-07T03:16:08;3.00;99.90
33741;DHT22;20065;48.380;10.892;2023-12-07T03:18:55;3.00;99.90
33741;DHT22;20065;48.380;10.892;2023-12-07T03:21:42;3.00;99.90
33741;DHT22;20065;48.380;10.892;2023-12-07T03:24:31;3.00;99.90
33741;DHT22;20065;48.380;10.892;2023-12-07T03:27:17;3.00;99.90
33741;DHT22;20065;48.380;10.892;2023-12-07T03:30:04;3.00;99.90
33741;DHT22;20065;48.380;10.892;2023-12-07T03:32:51;3.00;99.90
33741;DHT22;20065;48.380;10.892;2023-12-07T03:35:37;2.90;99.90
33741;DHT22;20065;48.380;10.892;2023-12-07T03:38:25;2.90;99.90
33741;DHT22;20065;48.380;10.892;2023-12-07T03:41:11;2.90;99.90
33741;DHT22;20065;48.380;10.892;2023-12-07T03:43:57;2.90;99.90
33741;DHT22;20065;48.380;10.892;2023-12-07T03:46:44;2.90;99.90
33741;DHT22;20065;48.380;10.892;2023-12-07T03:49:30;2.90;99.90
33741;DHT22;20065;48.380;10.892;2023-12-07T03:52:17;2.90;99.90
33741;DHT22;20065;48.380;10.892;2023-12-07T03:55:03;2.90;99.90
33741;DHT22;20065;48.380;10.892;2023-12-07T03:57:50;2.90;99.90
33741;DHT22;20065;48.380;10.892;2023-12-07T04:00:36;2.90;99.90
33741;DHT22;20065;48.380;10.892;2023-12-07T04:03:23;2.80;99.90
33741;DHT22;20065;48.380;10.892;2023-12-07T04:06:09;2.80;99.90
33741;DHT22;20065;48.380;10.892;2023-12-07T04:08:56;2.80;99.90
33741;DHT22;20065;48.380;10.892;2023-12-07T04:11:42;2.80;99.90
33741;DHT22;20065;48.380;10.892;2023-12-07T04:14:28;2.80;99.90
33741;DHT22;20065;48.380;10.892;2023-12-07T04:17:14;2.70;99.90
33741;DHT22;20065;48.380;10.892;2023-12-07T04:20:01;2.60;99.90
33741;DHT22;20065;48.380;10.892;2023-12-07T04:22:47;2.60;99.90
33741;DHT22;20065;48.380;10.892;2023-12-07T04:25:35;2.60;99.90
33741;DHT22;20065;48.380;10.892;2023-12-07T04:28:21;2.70;99.90
33741;DHT22;20065;48.380;10.892;2023-12-07T04:31:07;2.70;99.90
33741;DHT22;20065;48.380;10.892;2023-12-07T04:33:55;2.70;99.90
33741;DHT22;20065;48.380;10.892;2023-12-07T04:36:41;2.70;99.90
33741;DHT22;20065;48.380;10.892;2023-12-07T04:39:27;2.80;99.90
33741;DHT22;20065;48.380;10.892;2023-12-07T04:42:14;2.70;99.90
33741;DHT22;20065;48.380;10.892;2023-12-07T04:45:02;2.70;99.90
33741;DHT22;20065;48.380;10.892;2023-12-07T04:47:48;2.70;99.90
33741;DHT22;20065;48.380;10.892;2023-12-07T04:50:35;2.60;99.90
33741;DHT22;20065;48.380;10.892;2023-12-07T04:53:21;2.70;99.90
33741;DHT22;20065;48.380;10.892;2023-12-07T04:56:08;2.60;99.90
33741;DHT22;20065;48.380;10.892;2023-12-07T04:58:54;2.70;99.90
33741;DHT22;20065;48.380;10.892;2023-12-07T05:01:40;2.80;99.90
33741;DHT22;20065;48.380;10.892;2023-12-07T05:04:27;2.80;99.90
33741;DHT22;20065;48.380;10.892;2023-12-07T05:07:13;2.70;99.90
33741;DHT22;20065;48.380;10.892;2023-12-07T05:10:00;2.70;99.90
33741;DHT22;20065;48.380;10.892;2023-12-07T05:12:46;2.80;99.90
33741;DHT22;20065;48.380;10.892;2023-12-07T05:15:33;2.70;99.90
33741;DHT22;20065;48.380;10.892;2023-12-07T05:18:20;2.80;99.90
33741;DHT22;20065;48.380;10.892;2023-12-07T05:21:07;2.70;99.90
33741;DHT22;20065;48.380;10.892;2023-12-07T05:23:54;2.50;99.90
33741;DHT22;20065;48.380;10.892;2023-12-07T05:26:44;2.60;99.90
33741;DHT22;20065;48.380;10.892;2023-12-07T05:29:33;2.60;99.90
33741;DHT22;20065;48.380;10.892;2023-12-07T05:32:20;2.50;99.90
33741;DHT22;20065;48.380;10.892;2023-12-07T05:35:06;2.30;99.90
33741;DHT22;20065;48.380;10.892;2023-12-07T05:37:53;2.20;99.90
33741;DHT22;20065;48.380;10.892;2023-12-07T05:40:39;2.20;99.90
33741;DHT22;20065;48.380;10.892;2023-12-07T05:43:25;2.30;99.90
33741;DHT22;20065;48.380;10.892;2023-12-07T05:46:12;2.10;99.90
33741;DHT22;20065;48.380;10.892;2023-12-07T05:48:58;2.00;99.90
33741;DHT22;20065;48.380;10.892;2023-12-07T05:51:46;2.10;99.90
33741;DHT22;20065;48.380;10.892;2023-12-07T05:54:33;2.10;99.90
33741;DHT22;20065;48.380;10.892;2023-12-07T05:57:21;2.10;99.90
33741;DHT22;20065;48.380;10.892;2023-12-07T06:00:07;2.20;99.90
33741;DHT22;20065;48.380;10.892;2023-12-07T06:02:58;2.00;99.90
33741;DHT22;20065;48.380;10.892;2023-12-07T06:05:45;2.00;99.90
33741;DHT22;20065;48.380;10.892;2023-12-07T06:08:32;2.00;99.90
33741;DHT22;20065;48.380;10.892;2023-12-07T06:11:19;2.00;99.90
33741;DHT22;20065;48.380;10.892;2023-12-07T06:14:06;2.10;99.90
33741;DHT22;20065;48.380;10.892;2023-12-07T06:16:54;2.20;99.90
33741;DHT22;20065;48.380;10.892;2023-12-07T06:19:41;2.20;99.90
33741;DHT22;20065;48.380;10.892;2023-12-07T06:22:28;2.10;99.90
33741;DHT22;20065;48.380;10.892;2023-12-07T06:25:16;2.20;99.90
33741;DHT22;20065;48.380;10.892;2023-12-07T06:28:04;2.20;99.90
33741;DHT22;20065;48.380;10.892;2023-12-07T06:30:50;2.20;99.90
33741;DHT22;20065;48.380;10.892;2023-12-07T06:33:36;2.30;99.90
33741;DHT22;20065;48.380;10.892;2023-12-07T06:39:05;2.10;99.90
33741;DHT22;20065;48.380;10.892;2023-12-07T06:41:52;2.20;99.90
33741;DHT22;20065;48.380;10.892;2023-12-07T06:44:39;2.20;99.90
33741;DHT22;20065;48.380;10.892;2023-12-07T06:47:25;2.20;99.90
33741;DHT22;20065;48.380;10.892;2023-12-07T06:50:12;2.10;99.90
33741;DHT22;20065;48.380;10.892;2023-12-07T06:52:59;2.00;99.90
33741;DHT22;20065;48.380;10.892;2023-12-07T06:55:45;1.90;99.90
33741;DHT22;20065;48.380;10.892;2023-12-07T06:58:32;2.00;99.90
33741;DHT22;20065;48.380;10.892;2023-12-07T07:01:18;2.10;99.90
33741;DHT22;20065;48.380;10.892;2023-12-07T07:04:04;2.10;99.90
33741;DHT22;20065;48.380;10.892;2023-12-07T07:06:50;2.20;99.90
33741;DHT22;20065;48.380;10.892;2023-12-07T07:09:37;2.40;99.90
33741;DHT22;20065;48.380;10.892;2023-12-07T07:12:23;2.40;99.90
33741;DHT22;20065;48.380;10.892;2023-12-07T07:15:09;2.30;99.90
33741;DHT22;20065;48.380;10.892;2023-12-07T07:17:56;2.40;99.90
33741;DHT22;20065;48.380;10.892;2023-12-07T07:20:42;2.40;99.90
33741;DHT22;20065;48.380;10.892;2023-12-07T07:23:28;2.40;99.90
33741;DHT22;20065;48.380;10.892;2023-12-07T07:26:14;2.50;99.90
33741;DHT22;20065;48.380;10.892;2023-12-07T07:29:02;2.40;99.90
33741;DHT22;20065;48.380;10.892;2023-12-07T07:31:50;2.40;99.90
33741;DHT22;20065;48.380;10.892;2023-12-07T07:34:36;2.50;99.90
33741;DHT22;20065;48.380;10.892;2023-12-07T07:37:22;2.50;99.90
33741;DHT22;20065;48.380;10.892;2023-12-07T07:40:09;2.30;99.90
33741;DHT22;20065;48.380;10.892;2023-12-07T07:42:57;2.20;99.90
33741;DHT22;20065;48.380;10.892;2023-12-07T07:45:43;2.30;99.90
33741;DHT22;20065;48.380;10.892;2023-12-07T07:48:29;2.40;99.90
33741;DHT22;20065;48.380;10.892;2023-12-07T07:51:16;2.30;99.90
33741;DHT22;20065;48.380;10.892;2023-12-07T07:54:05;2.30;99.90
33741;DHT22;20065;48.380;10.892;2023-12-07T07:56:54;2.30;99.90
33741;DHT22;20065;48.380;10.892;2023-12-07T07:59:40;2.40;99.90
33741;DHT22;20065;48.380;10.892;2023-12-07T08:02:26;2.50;99.90
33741;DHT22;20065;48.380;10.892;2023-12-07T08:05:13;2.50;99.90
33741;DHT22;20065;48.380;10.892;2023-12-07T08:07:59;2.50;99.90
33741;DHT22;20065;48.380;10.892;2023-12-07T08:10:45;2.50;99.90
33741;DHT22;20065;48.380;10.892;2023-12-07T08:13:31;2.40;99.90
33741;DHT22;20065;48.380;10.892;2023-12-07T08:16:17;2.40;99.90
33741;DHT22;20065;48.380;10.892;2023-12-07T08:19:05;2.40;99.90
33741;DHT22;20065;48.380;10.892;2023-12-07T08:21:51;2.20;99.90
33741;DHT22;20065;48.380;10.892;2023-12-07T08:24:40;2.60;99.90
33741;DHT22;20065;48.380;10.892;2023-12-07T08:27:26;2.60;99.90
33741;DHT22;20065;48.380;10.892;2023-12-07T08:30:13;2.60;99.90
33741;DHT22;20065;48.380;10.892;2023-12-07T08:32:59;2.60;99.90
33741;DHT22;20065;48.380;10.892;2023-12-07T08:35:45;2.70;99.90
33741;DHT22;20065;48.380;10.892;2023-12-07T08:38:32;2.70;99.90
33741;DHT22;20065;48.380;10.892;2023-12-07T08:41:19;2.80;99.90
33741;DHT22;20065;48.380;10.892;2023-12-07T08:44:07;2.80;99.90
33741;DHT22;20065;48.380;10.892;2023-12-07T08:46:53;2.80;99.90
33741;DHT22;20065;48.380;10.892;2023-12-07T08:49:40;2.90;99.90
33741;DHT22;20065;48.380;10.892;2023-12-07T08:52:26;3.10;99.90
33741;DHT22;20065;48.380;10.892;2023-12-07T08:55:13;3.80;99.90
33741;DHT22;20065;48.380;10.892;2023-12-07T08:58:01;4.90;99.90
33741;DHT22;20065;48.380;10.892;2023-12-07T09:00:49;6.80;99.90
33741;DHT22;20065;48.380;10.892;2023-12-07T09:03:36;8.30;99.90
33741;DHT22;20065;48.380;10.892;2023-12-07T09:06:23;9.80;99.90
33741;DHT22;20065;48.380;10.892;2023-12-07T09:09:09;10.30;99.90
33741;DHT22;20065;48.380;10.892;2023-12-07T09:11:57;10.70;99.90
33741;DHT22;20065;48.380;10.892;2023-12-07T09:14:43;11.10;99.90
33741;DHT22;20065;48.380;10.892;2023-12-07T09:17:30;10.70;99.90
33741;DHT22;20065;48.380;10.892;2023-12-07T09:20:17;9.70;99.90
33741;DHT22;20065;48.380;10.892;2023-12-07T09:23:04;8.30;99.90
33741;DHT22;20065;48.380;10.892;2023-12-07T09:25:50;6.90;99.90
33741;DHT22;20065;48.380;10.892;2023-12-07T09:28:36;6.10;99.90
33741;DHT22;20065;48.380;10.892;2023-12-07T09:31:25;5.40;99.90
33741;DHT22;20065;48.380;10.892;2023-12-07T09:34:11;5.20;99.90
33741;DHT22;20065;48.380;10.892;2023-12-07T09:37:09;4.70;99.90
33741;DHT22;20065;48.380;10.892;2023-12-07T09:39:55;4.60;99.90
33741;DHT22;20065;48.380;10.892;2023-12-07T09:42:42;4.60;99.90
33741;DHT22;20065;48.380;10.892;2023-12-07T09:45:31;4.50;99.90
33741;DHT22;20065;48.380;10.892;2023-12-07T09:48:17;4.40;99.90
33741;DHT22;20065;48.380;10.892;2023-12-07T09:51:05;4.50;99.90
33741;DHT22;20065;48.380;10.892;2023-12-07T09:53:52;4.70;99.90
33741;DHT22;20065;48.380;10.892;2023-12-07T09:56:39;5.60;99.90
33741;DHT22;20065;48.380;10.892;2023-12-07T09:59:27;7.30;99.90
33741;DHT22;20065;48.380;10.892;2023-12-07T10:02:13;9.00;99.90
33741;DHT22;20065;48.380;10.892;2023-12-07T10:05:04;10.50;99.90
33741;DHT22;20065;48.380;10.892;2023-12-07T10:07:51;11.00;99.90
33741;DHT22;20065;48.380;10.892;2023-12-07T10:10:37;11.00;99.90
33741;DHT22;20065;48.380;10.892;2023-12-07T10:13:23;10.70;99.90
33741;DHT22;20065;48.380;10.892;2023-12-07T10:16:15;9.30;99.90
33741;DHT22;20065;48.380;10.892;2023-12-07T10:19:15;8.00;99.90
33741;DHT22;20065;48.380;10.892;2023-12-07T10:22:13;6.80;99.90
33741;DHT22;20065;48.380;10.892;2023-12-07T10:25:01;6.20;99.90
33741;DHT22;20065;48.380;10.892;2023-12-07T10:27:47;5.80;99.90
33741;DHT22;20065;48.380;10.892;2023-12-07T10:30:37;5.60;99.90
33741;DHT22;20065;48.380;10.892;2023-12-07T10:33:23;5.20;99.90
33741;DHT22;20065;48.380;10.892;2023-12-07T10:36:11;5.00;99.90
33741;DHT22;20065;48.380;10.892;2023-12-07T10:38:58;5.00;99.90
33741;DHT22;20065;48.380;10.892;2023-12-07T10:41:45;5.10;99.90
33741;DHT22;20065;48.380;10.892;2023-12-07T10:44:36;5.10;99.90
33741;DHT22;20065;48.380;10.892;2023-12-07T10:47:31;5.10;99.90
33741;DHT22;20065;48.380;10.892;2023-12-07T10:50:22;5.00;99.90
33741;DHT22;20065;48.380;10.892;2023-12-07T10:53:20;5.10;99.90
33741;DHT22;20065;48.380;10.892;2023-12-07T10:56:10;5.10;99.90
33741;DHT22;20065;48.380;10.892;2023-12-07T10:59:04;5.00;99.90
33741;DHT22;20065;48.380;10.892;2023-12-07T11:01:51;4.90;99.90
33741;DHT22;20065;48.380;10.892;2023-12-07T11:04:39;4.90;99.90
33741;DHT22;20065;48.380;10.892;2023-12-07T11:07:52;4.90;99.90
33741;DHT22;20065;48.380;10.892;2023-12-07T11:11:08;4.80;99.90
33741;DHT22;20065;48.380;10.892;2023-12-07T11:14:19;4.80;99.90
33741;DHT22;20065;48.380;10.892;2023-12-07T11:17:06;4.70;99.90
33741;DHT22;20065;48.380;10.892;2023-12-07T11:19:52;4.60;99.90
33741;DHT22;20065;48.380;10.892;2023-12-07T11:22:41;4.60;99.90
33741;DHT22;20065;48.380;10.892;2023-12-07T11:25:27;4.70;99.90
33741;DHT22;20065;48.380;10.892;2023-12-07T11:28:14;4.70;99.90
33741;DHT22;20065;48.380;10.892;2023-12-07T11:31:02;4.80;99.90
33741;DHT22;20065;48.380;10.892;2023-12-07T11:33:48;4.80;99.90
33741;DHT22;20065;48.380;10.892;2023-12-07T11:36:35;4.80;99.90
33741;DHT22;20065;48.380;10.892;2023-12-07T11:39:21;4.80;99.90
33741;DHT22;20065;48.380;10.892;2023-12-07T11:42:16;4.90;99.90
33741;DHT22;20065;48.380;10.892;2023-12-07T11:45:02;5.00;99.90
33741;DHT22;20065;48.380;10.892;2023-12-07T11:48:08;4.90;99.90
33741;DHT22;20065;48.380;10.892;2023-12-07T11:53:41;4.90;99.90
33741;DHT22;20065;48.380;10.892;2023-12-07T11:56:28;4.90;99.90
33741;DHT22;20065;48.380;10.892;2023-12-07T11:59:14;4.90;99.90
33741;DHT22;20065;48.380;10.892;2023-12-07T12:02:02;4.90;99.90
33741;DHT22;20065;48.380;10.892;2023-12-07T12:04:51;5.00;99.90
33741;DHT22;20065;48.380;10.892;2023-12-07T12:07:37;5.10;99.90
33741;DHT22;20065;48.380;10.892;2023-12-07T12:10:24;5.20;99.90
33741;DHT22;20065;48.380;10.892;2023-12-07T12:13:11;5.20;99.90
33741;DHT22;20065;48.380;10.892;2023-12-07T12:15:58;5.20;99.90
33741;DHT22;20065;48.380;10.892;2023-12-07T12:18:45;5.20;99.90
33741;DHT22;20065;48.380;10.892;2023-12-07T12:21:38;5.20;99.90
33741;DHT22;20065;48.380;10.892;2023-12-07T12:24:28;5.20;99.90
33741;DHT22;20065;48.380;10.892;2023-12-07T12:27:15;5.20;99.90
33741;DHT22;20065;48.380;10.892;2023-12-07T12:30:03;5.20;99.90
33741;DHT22;20065;48.380;10.892;2023-12-07T12:32:50;5.20;99.90
33741;DHT22;20065;48.380;10.892;2023-12-07T12:35:37;5.20;99.90
33741;DHT22;20065;48.380;10.892;2023-12-07T12:38:29;5.10;99.90
33741;DHT22;20065;48.380;10.892;2023-12-07T12:41:18;5.20;99.90
33741;DHT22;20065;48.380;10.892;2023-12-07T12:44:05;5.20;99.90
33741;DHT22;20065;48.380;10.892;2023-12-07T12:46:52;5.20;99.90
33741;DHT22;20065;48.380;10.892;2023-12-07T12:49:41;5.20;99.90
33741;DHT22;20065;48.380;10.892;2023-12-07T12:52:33;5.10;99.90
33741;DHT22;20065;48.380;10.892;2023-12-07T12:55:20;5.10;99.90
33741;DHT22;20065;48.380;10.892;2023-12-07T12:58:09;5.10;99.90
33741;DHT22;20065;48.380;10.892;2023-12-07T13:01:01;5.10;99.90
33741;DHT22;20065;48.380;10.892;2023-12-07T13:03:52;5.10;99.90
33741;DHT22;20065;48.380;10.892;2023-12-07T13:06:42;5.10;99.90
33741;DHT22;20065;48.380;10.892;2023-12-07T13:09:32;5.10;99.90
33741;DHT22;20065;48.380;10.892;2023-12-07T13:12:18;5.10;99.90
33741;DHT22;20065;48.380;10.892;2023-12-07T13:15:07;5.10;99.90
33741;DHT22;20065;48.380;10.892;2023-12-07T13:17:53;5.00;99.90
33741;DHT22;20065;48.380;10.892;2023-12-07T13:20:41;5.00;99.90
33741;DHT22;20065;48.380;10.892;2023-12-07T13:23:38;5.00;99.90
33741;DHT22;20065;48.380;10.892;2023-12-07T13:26:25;5.00;99.90
33741;DHT22;20065;48.380;10.892;2023-12-07T13:29:12;5.00;99.90
33741;DHT22;20065;48.380;10.892;2023-12-07T13:32:04;5.00;99.90
33741;DHT22;20065;48.380;10.892;2023-12-07T13:35:05;5.00;99.90
33741;DHT22;20065;48.380;10.892;2023-12-07T13:37:57;4.90;99.90
33741;DHT22;20065;48.380;10.892;2023-12-07T13:40:44;4.90;99.90
33741;DHT22;20065;48.380;10.892;2023-12-07T13:43:31;4.90;99.90
33741;DHT22;20065;48.380;10.892;2023-12-07T13:46:17;5.00;99.90
33741;DHT22;20065;48.380;10.892;2023-12-07T13:49:04;5.00;99.90
33741;DHT22;20065;48.380;10.892;2023-12-07T13:51:56;4.90;99.90
33741;DHT22;20065;48.380;10.892;2023-12-07T13:54:45;4.90;99.90
33741;DHT22;20065;48.380;10.892;2023-12-07T13:57:39;5.00;99.90
33741;DHT22;20065;48.380;10.892;2023-12-07T14:00:26;4.90;99.90
33741;DHT22;20065;48.380;10.892;2023-12-07T14:03:14;5.00;99.90
33741;DHT22;20065;48.380;10.892;2023-12-07T14:06:01;5.00;99.90
33741;DHT22;20065;48.380;10.892;2023-12-07T14:08:48;4.90;99.90
33741;DHT22;20065;48.380;10.892;2023-12-07T14:11:37;4.90;99.90
33741;DHT22;20065;48.380;10.892;2023-12-07T14:14:25;5.00;99.90
33741;DHT22;20065;48.380;10.892;2023-12-07T14:17:16;4.90;99.90
33741;DHT22;20065;48.380;10.892;2023-12-07T14:20:08;4.90;99.90
33741;DHT22;20065;48.380;10.892;2023-12-07T14:22:55;4.80;99.90
33741;DHT22;20065;48.380;10.892;2023-12-07T14:25:42;4.90;99.90
33741;DHT22;20065;48.380;10.892;2023-12-07T14:28:32;4.90;99.90
33741;DHT22;20065;48.380;10.892;2023-12-07T14:31:22;5.50;99.90
33741;DHT22;20065;48.380;10.892;2023-12-07T14:34:09;4.90;99.90
33741;DHT22;20065;48.380;10.892;2023-12-07T14:36:58;4.80;99.90
33741;DHT22;20065;48.380;10.892;2023-12-07T14:39:45;4.80;99.90
33741;DHT22;20065;48.380;10.892;2023-12-07T14:42:31;4.70;99.90
33741;DHT22;20065;48.380;10.892;2023-12-07T14:45:18;4.70;99.90
33741;DHT22;20065;48.380;10.892;2023-12-07T14:48:06;4.70;99.90
33741;DHT22;20065;48.380;10.892;2023-12-07T14:50:52;4.60;99.90
33741;DHT22;20065;48.380;10.892;2023-12-07T14:53:38;4.60;99.90
33741;DHT22;20065;48.380;10.892;2023-12-07T14:56:24;4.60;99.90
33741;DHT22;20065;48.380;10.892;2023-12-07T14:59:12;4.50;99.90
33741;DHT22;20065;48.380;10.892;2023-12-07T15:01:58;4.50;99.90
33741;DHT22;20065;48.380;10.892;2023-12-07T15:04:44;4.50;99.90
33741;DHT22;20065;48.380;10.892;2023-12-07T15:07:30;4.50;99.90
33741;DHT22;20065;48.380;10.892;2023-12-07T15:10:16;4.40;99.90
33741;DHT22;20065;48.380;10.892;2023-12-07T15:13:03;4.40;99.90
33741;DHT22;20065;48.380;10.892;2023-12-07T15:15:49;4.40;99.90
33741;DHT22;20065;48.380;10.892;2023-12-07T15:18:36;4.40;99.90
33741;DHT22;20065;48.380;10.892;2023-12-07T15:21:22;4.40;99.90
33741;DHT22;20065;48.380;10.892;2023-12-07T15:24:09;4.30;99.90
33741;DHT22;20065;48.380;10.892;2023-12-07T15:26:55;4.20;99.90
33741;DHT22;20065;48.380;10.892;2023-12-07T15:29:41;4.20;99.90
33741;DHT22;20065;48.380;10.892;2023-12-07T15:32:28;4.10;99.90
33741;DHT22;20065;48.380;10.892;2023-12-07T15:35:14;4.00;99.90
33741;DHT22;20065;48.380;10.892;2023-12-07T15:38:00;4.00;99.90
33741;DHT22;20065;48.380;10.892;2023-12-07T15:40:52;3.90;99.90
33741;DHT22;20065;48.380;10.892;2023-12-07T15:43:41;3.90;99.90
33741;DHT22;20065;48.380;10.892;2023-12-07T15:46:28;3.80;99.90
33741;DHT22;20065;48.380;10.892;2023-12-07T15:49:14;3.80;99.90
33741;DHT22;20065;48.380;10.892;2023-12-07T15:52:00;3.70;99.90
33741;DHT22;20065;48.380;10.892;2023-12-07T15:54:46;3.70;99.90
33741;DHT22;20065;48.380;10.892;2023-12-07T15:57:32;3.70;99.90
33741;DHT22;20065;48.380;10.892;2023-12-07T16:00:21;4.00;99.90
33741;DHT22;20065;48.380;10.892;2023-12-07T16:03:08;3.70;99.90
33741;DHT22;20065;48.380;10.892;2023-12-07T16:05:54;3.60;99.90
33741;DHT22;20065;48.380;10.892;2023-12-07T16:08:40;3.60;99.90
33741;DHT22;20065;48.380;10.892;2023-12-07T16:11:26;3.50;99.90
33741;DHT22;20065;48.380;10.892;2023-12-07T16:14:13;3.50;99.90
33741;DHT22;20065;48.380;10.892;2023-12-07T16:16:59;3.50;99.90
33741;DHT22;20065;48.380;10.892;2023-12-07T16:19:48;3.40;99.90
33741;DHT22;20065;48.380;10.892;2023-12-07T16:22:34;3.40;99.90
33741;DHT22;20065;48.380;10.892;2023-12-07T16:25:21;3.50;99.90
33741;DHT22;20065;48.380;10.892;2023-12-07T16:28:11;3.40;99.90
33741;DHT22;20065;48.380;10.892;2023-12-07T16:30:57;3.40;99.90
33741;DHT22;20065;48.380;10.892;2023-12-07T16:33:46;3.30;99.90
33741;DHT22;20065;48.380;10.892;2023-12-07T16:36:32;3.30;99.90
33741;DHT22;20065;48.380;10.892;2023-12-07T16:39:18;3.30;99.90
33741;DHT22;20065;48.380;10.892;2023-12-07T16:42:05;3.20;99.90
33741;DHT22;20065;48.380;10.892;2023-12-07T16:44:51;3.20;99.90
33741;DHT22;20065;48.380;10.892;2023-12-07T16:47:39;3.20;99.90
33741;DHT22;20065;48.380;10.892;2023-12-07T16:50:26;3.20;99.90
33741;DHT22;20065;48.380;10.892;2023-12-07T16:53:12;3.00;99.90
33741;DHT22;20065;48.380;10.892;2023-12-07T16:56:01;3.00;99.90
33741;DHT22;20065;48.380;10.892;2023-12-07T16:58:47;3.10;99.90
33741;DHT22;20065;48.380;10.892;2023-12-07T17:01:33;3.00;99.90
33741;DHT22;20065;48.380;10.892;2023-12-07T17:04:20;2.90;99.90
33741;DHT22;20065;48.380;10.892;2023-12-07T17:07:06;2.80;99.90
33741;DHT22;20065;48.380;10.892;2023-12-07T17:09:53;2.80;99.90
33741;DHT22;20065;48.380;10.892;2023-12-07T17:12:40;2.80;99.90
33741;DHT22;20065;48.380;10.892;2023-12-07T17:15:28;2.70;99.90
33741;DHT22;20065;48.380;10.892;2023-12-07T17:18:18;2.80;99.90
33741;DHT22;20065;48.380;10.892;2023-12-07T17:21:12;2.70;99.90
33741;DHT22;20065;48.380;10.892;2023-12-07T17:23:58;2.70;99.90
33741;DHT22;20065;48.380;10.892;2023-12-07T17:26:45;2.60;99.90
33741;DHT22;20065;48.380;10.892;2023-12-07T17:29:31;2.70;99.90
33741;DHT22;20065;48.380;10.892;2023-12-07T17:32:18;2.60;99.90
33741;DHT22;20065;48.380;10.892;2023-12-07T17:35:07;2.60;99.90
33741;DHT22;20065;48.380;10.892;2023-12-07T17:37:57;2.60;99.90
33741;DHT22;20065;48.380;10.892;2023-12-07T17:40:43;2.60;99.90
33741;DHT22;20065;48.380;10.892;2023-12-07T17:43:31;2.70;99.90
33741;DHT22;20065;48.380;10.892;2023-12-07T17:46:18;2.50;99.90
33741;DHT22;20065;48.380;10.892;2023-12-07T17:49:09;2.60;99.90